createdAt,value
2018-01-27T00:01:29.536Z,7.70
2018-01-27T00:03:57.804Z,7.70
2018-01-27T00:06:26.830Z,7.60
2018-01-27T00:08:55.102Z,7.50
2018-01-27T00:11:23.402Z,7.60
2018-01-27T00:13:51.671Z,7.50
2018-01-27T00:16:19.969Z,7.50
2018-01-27T00:18:48.248Z,7.50
2018-01-27T00:21:16.575Z,7.50
2018-01-27T00:23:44.814Z,7.50
2018-01-27T00:26:13.049Z,7.40
2018-01-27T00:28:42.207Z,7.30
2018-01-27T00:31:10.500Z,7.30
2018-01-27T00:33:38.877Z,7.20
2018-01-27T00:36:07.140Z,7.20
2018-01-27T00:38:35.426Z,7.20
2018-01-27T00:41:03.701Z,7.20
2018-01-27T00:43:31.986Z,7.20
2018-01-27T00:46:00.257Z,7.20
2018-01-27T00:48:28.554Z,7.30
2018-01-27T00:50:56.805Z,7.30
2018-01-27T00:53:25.089Z,7.30
2018-01-27T00:55:53.366Z,7.20
2018-01-27T00:58:21.643Z,7.20
2018-01-27T01:00:49.951Z,7.20
2018-01-27T01:03:18.237Z,7.20
2018-01-27T01:05:46.527Z,7.20
2018-01-27T01:08:14.826Z,7.20
2018-01-27T01:10:43.070Z,7.20
2018-01-27T01:13:11.333Z,7.30
2018-01-27T01:15:39.617Z,7.30
2018-01-27T01:18:07.882Z,7.30
2018-01-27T01:20:36.139Z,7.30
2018-01-27T01:23:05.167Z,7.30
2018-01-27T01:25:33.447Z,7.20
2018-01-27T01:28:01.730Z,7.20
2018-01-27T01:30:30.010Z,7.20
2018-01-27T01:32:58.280Z,7.20
2018-01-27T01:35:26.573Z,7.20
2018-01-27T01:37:54.838Z,7.20
2018-01-27T01:40:23.149Z,7.10
2018-01-27T01:42:57.208Z,7.10
2018-01-27T01:45:26.233Z,7.10
2018-01-27T01:47:54.507Z,7.10
2018-01-27T01:50:22.771Z,7.10
2018-01-27T01:52:51.047Z,7.10
2018-01-27T01:55:20.066Z,7.00
2018-01-27T01:57:48.366Z,7.00
2018-01-27T02:00:16.615Z,6.90
2018-01-27T02:02:44.931Z,6.90
2018-01-27T02:05:13.179Z,6.90
2018-01-27T02:07:41.482Z,6.80
2018-01-27T02:10:09.869Z,6.80
2018-01-27T02:12:38.147Z,6.70
2018-01-27T02:15:06.406Z,6.70
2018-01-27T02:17:34.707Z,6.60
2018-01-27T02:20:02.979Z,6.60
2018-01-27T02:22:31.239Z,6.50
2018-01-27T02:24:59.502Z,6.40
2018-01-27T02:27:28.518Z,6.40
2018-01-27T02:29:56.926Z,6.40
2018-01-27T02:32:25.175Z,6.40
2018-01-27T02:34:53.443Z,6.40
2018-01-27T02:37:22.482Z,6.40
2018-01-27T02:39:50.770Z,6.40
2018-01-27T02:42:19.040Z,6.30
2018-01-27T02:44:47.332Z,6.30
2018-01-27T02:47:15.587Z,6.30
2018-01-27T02:49:43.851Z,6.20
2018-01-27T02:52:12.888Z,6.10
2018-01-27T02:54:41.167Z,6.10
2018-01-27T02:57:09.442Z,6.00
2018-01-27T02:59:37.710Z,6.00
2018-01-27T03:02:05.972Z,6.00
2018-01-27T03:04:34.281Z,5.80
2018-01-27T03:07:02.537Z,5.80
2018-01-27T03:09:30.846Z,5.70
2018-01-27T03:11:59.126Z,5.70
2018-01-27T03:14:27.394Z,5.60
2018-01-27T03:16:55.645Z,5.50
2018-01-27T03:19:24.686Z,5.20
2018-01-27T03:21:52.943Z,5.20
2018-01-27T03:24:21.238Z,5.30
2018-01-27T03:26:49.591Z,5.30
2018-01-27T03:29:17.866Z,5.20
2018-01-27T03:31:46.117Z,5.20
2018-01-27T03:34:15.181Z,5.10
2018-01-27T03:36:43.435Z,5.10
2018-01-27T03:39:11.740Z,5.10
2018-01-27T03:41:40.057Z,5.10
2018-01-27T03:44:08.305Z,5.10
2018-01-27T03:46:36.569Z,5.20
2018-01-27T03:49:04.970Z,5.10
2018-01-27T03:51:33.282Z,5.10
2018-01-27T03:54:01.627Z,5.10
2018-01-27T03:56:29.886Z,5.10
2018-01-27T03:58:58.149Z,5.10
2018-01-27T04:01:26.502Z,5.10
2018-01-27T04:03:54.845Z,5.20
2018-01-27T04:06:23.094Z,5.20
2018-01-27T04:08:51.355Z,5.10
2018-01-27T04:11:20.386Z,5.10
2018-01-27T04:13:48.658Z,5.10
2018-01-27T04:16:16.910Z,5.10
2018-01-27T04:18:45.938Z,5.00
2018-01-27T04:21:14.199Z,5.00
2018-01-27T04:23:42.461Z,5.00
2018-01-27T04:26:11.475Z,5.00
2018-01-27T04:28:40.544Z,4.90
2018-01-27T04:31:08.764Z,4.90
2018-01-27T04:33:37.089Z,5.00
2018-01-27T04:36:05.333Z,5.00
2018-01-27T04:38:33.642Z,5.00
2018-01-27T04:41:01.887Z,5.00
2018-01-27T04:43:30.147Z,5.00
2018-01-27T04:45:59.159Z,5.00
2018-01-27T04:48:27.432Z,4.90
2018-01-27T04:50:56.464Z,4.80
2018-01-27T04:53:24.725Z,4.80
2018-01-27T04:55:53.042Z,4.80
2018-01-27T04:58:21.404Z,4.90
2018-01-27T05:00:49.659Z,4.90
2018-01-27T05:03:17.929Z,4.90
2018-01-27T05:05:46.938Z,4.90
2018-01-27T05:08:15.249Z,4.80
2018-01-27T05:10:43.522Z,4.80
2018-01-27T05:13:11.809Z,4.80
2018-01-27T05:15:40.069Z,4.80
2018-01-27T05:18:08.312Z,4.80
2018-01-27T05:20:36.594Z,4.70
2018-01-27T05:23:05.657Z,4.70
2018-01-27T05:25:34.031Z,4.70
2018-01-27T05:28:02.267Z,4.60
2018-01-27T05:30:31.307Z,4.50
2018-01-27T05:32:59.623Z,4.50
2018-01-27T05:35:27.874Z,4.60
2018-01-27T05:37:56.114Z,4.60
2018-01-27T05:40:24.382Z,4.60
2018-01-27T05:42:54.164Z,4.50
2018-01-27T05:45:22.425Z,4.50
2018-01-27T05:47:50.662Z,4.60
2018-01-27T05:50:19.691Z,4.60
2018-01-27T05:52:47.959Z,4.50
2018-01-27T05:55:16.229Z,4.60
2018-01-27T05:57:45.256Z,4.60
2018-01-27T06:00:13.518Z,4.50
2018-01-27T06:02:41.778Z,4.60
2018-01-27T06:05:10.812Z,4.50
2018-01-27T06:07:39.089Z,4.50
2018-01-27T06:10:07.373Z,4.40
2018-01-27T06:12:35.626Z,4.50
2018-01-27T06:15:03.898Z,4.40
2018-01-27T06:17:32.926Z,4.40
2018-01-27T06:20:01.209Z,4.40
2018-01-27T06:22:29.499Z,4.40
2018-01-27T06:24:57.779Z,4.40
2018-01-27T06:27:26.017Z,4.40
2018-01-27T06:29:55.292Z,4.40
2018-01-27T06:32:23.541Z,4.40
2018-01-27T06:34:51.823Z,4.40
2018-01-27T06:37:20.079Z,4.40
2018-01-27T06:39:48.356Z,4.40
2018-01-27T06:42:16.663Z,4.30
2018-01-27T06:44:44.951Z,4.30
2018-01-27T06:47:13.185Z,4.30
2018-01-27T06:49:41.443Z,4.20
2018-01-27T06:52:10.527Z,4.30
2018-01-27T06:54:39.530Z,4.30
2018-01-27T06:57:07.800Z,4.30
2018-01-27T06:59:36.080Z,4.30
2018-01-27T07:02:04.339Z,4.30
2018-01-27T07:04:32.609Z,4.30
2018-01-27T07:07:00.849Z,4.20
2018-01-27T07:09:29.991Z,4.20
2018-01-27T07:11:58.237Z,4.20
2018-01-27T07:14:27.307Z,4.20
2018-01-27T07:16:55.661Z,4.20
2018-01-27T07:19:23.931Z,4.20
2018-01-27T07:21:52.189Z,4.20
2018-01-27T07:24:20.482Z,4.30
2018-01-27T07:26:48.780Z,4.30
2018-01-27T07:29:17.035Z,4.30
2018-01-27T07:31:45.292Z,4.30
2018-01-27T07:34:13.572Z,4.30
2018-01-27T07:36:41.901Z,4.30
2018-01-27T07:39:10.158Z,4.30
2018-01-27T07:41:38.434Z,4.10
2018-01-27T07:44:06.714Z,4.20
2018-01-27T07:46:35.045Z,4.30
2018-01-27T07:49:03.349Z,4.20
2018-01-27T07:51:32.351Z,4.30
2018-01-27T07:54:00.629Z,4.30
2018-01-27T07:56:30.240Z,4.40
2018-01-27T07:58:58.515Z,4.40
2018-01-27T08:01:27.544Z,4.50
2018-01-27T08:03:55.833Z,4.50
2018-01-27T08:06:24.110Z,4.50
2018-01-27T08:08:52.359Z,4.60
2018-01-27T08:11:20.667Z,4.60
2018-01-27T08:13:48.940Z,4.60
2018-01-27T08:16:17.228Z,4.70
2018-01-27T08:18:45.473Z,4.80
2018-01-27T08:21:14.490Z,4.90
2018-01-27T08:23:42.733Z,4.90
2018-01-27T08:26:11.881Z,5.00
2018-01-27T08:28:40.118Z,5.00
2018-01-27T08:31:09.146Z,4.90
2018-01-27T08:33:37.768Z,4.90
2018-01-27T08:36:06.250Z,5.00
2018-01-27T08:38:34.848Z,5.10
2018-01-27T08:41:03.252Z,5.10
2018-01-27T08:43:31.629Z,5.20
2018-01-27T08:46:00.234Z,5.20
2018-01-27T08:48:28.815Z,5.20
2018-01-27T08:50:57.392Z,5.30
2018-01-27T08:53:25.892Z,5.30
2018-01-27T08:55:54.226Z,5.40
2018-01-27T08:58:22.498Z,5.40
2018-01-27T09:00:50.762Z,5.50
2018-01-27T09:03:19.006Z,5.60
2018-01-27T09:05:47.263Z,5.60
2018-01-27T09:08:15.511Z,5.60
2018-01-27T09:10:43.804Z,5.60
2018-01-27T09:13:12.060Z,5.60
2018-01-27T09:15:40.317Z,5.60
2018-01-27T09:18:09.366Z,5.70
2018-01-27T09:20:37.647Z,5.70
2018-01-27T09:23:05.906Z,5.70
2018-01-27T09:25:34.182Z,5.70
2018-01-27T09:28:03.307Z,5.80
2018-01-27T09:30:31.821Z,5.70
2018-01-27T09:33:00.106Z,5.70
2018-01-27T09:35:28.366Z,5.80
2018-01-27T09:37:56.613Z,5.80
2018-01-27T09:40:24.893Z,5.80
2018-01-27T09:42:53.906Z,5.80
2018-01-27T09:45:22.187Z,5.80
2018-01-27T09:47:50.463Z,5.90
2018-01-27T09:50:18.733Z,5.90
2018-01-27T09:52:46.978Z,5.80
2018-01-27T09:55:16.031Z,5.80
2018-01-27T09:57:44.348Z,5.80
2018-01-27T10:00:12.611Z,5.80
2018-01-27T10:02:40.869Z,5.80
2018-01-27T10:05:09.154Z,5.90
2018-01-27T10:07:37.418Z,5.90
2018-01-27T10:10:05.855Z,5.90
2018-01-27T10:12:34.864Z,5.90
2018-01-27T10:15:03.895Z,5.90
2018-01-27T10:17:32.151Z,5.90
2018-01-27T10:20:01.196Z,5.80
2018-01-27T10:22:29.437Z,5.80
2018-01-27T10:24:57.770Z,5.70
2018-01-27T10:27:26.035Z,5.70
2018-01-27T10:29:54.341Z,5.80
2018-01-27T10:32:22.842Z,5.80
2018-01-27T10:34:51.918Z,6.00
2018-01-27T10:37:20.130Z,5.90
2018-01-27T10:39:49.160Z,6.00
2018-01-27T10:42:17.414Z,6.00
2018-01-27T10:44:45.694Z,6.00
2018-01-27T10:47:13.954Z,6.00
2018-01-27T10:49:42.225Z,6.10
2018-01-27T10:52:10.467Z,6.20
2018-01-27T10:54:38.783Z,6.20
2018-01-27T10:57:07.030Z,6.20
2018-01-27T10:59:35.317Z,6.20
2018-01-27T11:02:03.699Z,6.10
2018-01-27T11:04:31.974Z,6.00
2018-01-27T11:07:00.234Z,5.90
2018-01-27T11:09:28.481Z,5.80
2018-01-27T11:11:57.669Z,5.70
2018-01-27T11:14:26.257Z,5.70
2018-01-27T11:16:55.248Z,5.70
2018-01-27T11:19:23.534Z,5.70
2018-01-27T11:21:53.318Z,5.80
2018-01-27T11:24:21.558Z,5.80
2018-01-27T11:26:49.838Z,5.90
2018-01-27T11:29:18.090Z,5.90
2018-01-27T11:31:47.157Z,6.00
2018-01-27T11:34:15.421Z,6.00
2018-01-27T11:36:43.692Z,6.00
2018-01-27T11:39:11.983Z,6.10
2018-01-27T11:41:40.277Z,6.20
2018-01-27T11:44:08.535Z,6.30
2018-01-27T11:46:36.812Z,6.30
2018-01-27T11:49:05.053Z,6.40
2018-01-27T11:51:33.323Z,6.40
2018-01-27T11:54:01.661Z,6.50
2018-01-27T11:56:30.006Z,6.50
2018-01-27T11:58:59.044Z,6.60
2018-01-27T12:01:27.328Z,6.60
2018-01-27T12:03:55.573Z,6.60
2018-01-27T12:06:24.718Z,6.70
2018-01-27T12:08:52.989Z,6.70
2018-01-27T12:11:21.270Z,6.70
2018-01-27T12:13:49.519Z,6.70
2018-01-27T12:16:18.543Z,6.70
2018-01-27T12:18:46.825Z,6.70
2018-01-27T12:21:15.080Z,6.80
2018-01-27T12:23:43.346Z,6.80
2018-01-27T12:26:12.369Z,6.80
2018-01-27T12:28:40.649Z,6.80
2018-01-27T12:31:08.904Z,6.80
2018-01-27T12:33:37.972Z,6.90
2018-01-27T12:36:06.199Z,6.90
2018-01-27T12:38:34.468Z,6.90
2018-01-27T12:41:02.775Z,7.00
2018-01-27T12:43:31.034Z,6.90
2018-01-27T12:45:59.279Z,7.00
2018-01-27T12:48:27.719Z,7.00
2018-01-27T12:50:56.035Z,7.00
2018-01-27T12:53:24.273Z,7.10
2018-01-27T12:55:52.521Z,7.00
2018-01-27T12:58:21.546Z,7.00
2018-01-27T13:00:49.798Z,7.10
2018-01-27T13:03:19.043Z,7.10
2018-01-27T13:05:47.321Z,7.10
2018-01-27T13:08:15.594Z,7.10
2018-01-27T13:10:43.881Z,7.00
2018-01-27T13:13:12.144Z,7.00
2018-01-27T13:15:40.394Z,7.00
2018-01-27T13:18:09.421Z,6.90
2018-01-27T13:20:37.675Z,6.90
2018-01-27T13:23:05.950Z,7.00
2018-01-27T13:25:34.957Z,6.90
2018-01-27T13:28:03.198Z,6.90
2018-01-27T13:30:32.341Z,6.90
2018-01-27T13:33:00.586Z,6.90
2018-01-27T13:35:28.849Z,6.90
2018-01-27T13:37:57.181Z,6.90
2018-01-27T13:40:25.827Z,6.80
2018-01-27T13:42:54.226Z,6.70
2018-01-27T13:45:23.148Z,6.60
2018-01-27T13:47:51.869Z,6.60
2018-01-27T13:50:20.589Z,6.60
2018-01-27T13:52:49.104Z,6.50
2018-01-27T13:55:17.710Z,6.50
2018-01-27T13:57:46.269Z,6.40
2018-01-27T14:00:14.941Z,6.40
2018-01-27T14:02:44.348Z,6.30
2018-01-27T14:05:13.334Z,6.30
2018-01-27T14:07:41.800Z,6.30
2018-01-27T14:10:10.146Z,6.40
2018-01-27T14:12:39.215Z,6.30
2018-01-27T14:15:07.518Z,6.30
2018-01-27T14:17:35.958Z,6.30
2018-01-27T14:20:04.668Z,6.30
2018-01-27T14:22:33.018Z,6.30
2018-01-27T14:25:01.288Z,6.30
2018-01-27T14:27:29.580Z,6.30
2018-01-27T14:29:57.822Z,6.30
2018-01-27T14:32:26.170Z,6.20
2018-01-27T14:34:54.426Z,6.20
2018-01-27T14:37:22.686Z,6.20
2018-01-27T14:39:51.016Z,6.20
2018-01-27T14:42:19.244Z,6.20
2018-01-27T14:44:48.087Z,6.20
2018-01-27T14:47:17.149Z,6.10
2018-01-27T14:49:45.405Z,6.10
2018-01-27T14:52:13.670Z,6.20
2018-01-27T14:54:42.734Z,6.20
2018-01-27T14:57:11.011Z,6.10
2018-01-27T14:59:39.254Z,6.10
2018-01-27T15:02:07.524Z,6.10
2018-01-27T15:04:36.527Z,5.90
2018-01-27T15:07:04.797Z,5.90
2018-01-27T15:09:33.859Z,5.90
2018-01-27T15:12:02.352Z,5.90
2018-01-27T15:14:30.608Z,5.70
2018-01-27T15:16:58.893Z,5.70
2018-01-27T15:19:27.304Z,5.70
2018-01-27T15:21:55.780Z,5.70
2018-01-27T15:24:24.118Z,5.70
2018-01-27T15:26:52.385Z,5.60
2018-01-27T15:29:20.638Z,5.60
2018-01-27T15:31:49.671Z,5.50
2018-01-27T15:34:17.992Z,5.50
2018-01-27T15:36:47.806Z,5.50
2018-01-27T15:39:17.315Z,5.60
2018-01-27T15:41:45.805Z,5.60
2018-01-27T15:44:14.854Z,5.80
2018-01-27T15:46:44.066Z,5.80
2018-01-27T15:49:12.336Z,5.80
2018-01-27T15:51:40.615Z,5.70
2018-01-27T15:54:08.938Z,5.80
2018-01-27T15:56:37.174Z,5.80
2018-01-27T15:59:05.453Z,5.80
2018-01-27T16:01:33.738Z,5.80
2018-01-27T16:04:02.052Z,5.70
2018-01-27T16:06:30.315Z,5.70
2018-01-27T16:08:58.582Z,5.60
2018-01-27T16:11:26.851Z,5.50
2018-01-27T16:13:55.126Z,5.50
2018-01-27T16:16:23.436Z,5.50
2018-01-27T16:18:51.681Z,5.40
2018-01-27T16:21:19.947Z,5.40
2018-01-27T16:23:48.195Z,5.40
2018-01-27T16:26:17.222Z,5.50
2018-01-27T16:28:46.334Z,5.40
2018-01-27T16:31:14.608Z,5.40
2018-01-27T16:33:42.849Z,5.40
2018-01-27T16:36:11.883Z,5.20
2018-01-27T16:38:40.293Z,5.20
2018-01-27T16:41:08.603Z,5.20
2018-01-27T16:43:36.838Z,5.20
2018-01-27T16:46:05.118Z,5.20
2018-01-27T16:48:33.402Z,5.10
2018-01-27T16:51:01.686Z,5.10
2018-01-27T16:53:30.019Z,5.00
2018-01-27T16:55:58.276Z,5.00
2018-01-27T16:58:26.521Z,5.10
2018-01-27T17:00:54.800Z,5.10
2018-01-27T17:03:23.100Z,5.20
2018-01-27T17:05:51.346Z,5.20
2018-01-27T17:08:19.899Z,5.20
2018-01-27T17:10:48.117Z,5.20
2018-01-27T17:13:16.391Z,5.20
2018-01-27T17:15:44.720Z,5.00
2018-01-27T17:18:12.960Z,5.10
2018-01-27T17:20:41.247Z,5.10
2018-01-27T17:23:09.529Z,5.00
2018-01-27T17:25:37.917Z,5.00
2018-01-27T17:28:06.180Z,5.00
2018-01-27T17:30:34.421Z,5.00
2018-01-27T17:33:03.454Z,5.00
2018-01-27T17:35:31.710Z,5.00
2018-01-27T17:38:00.743Z,5.10
2018-01-27T17:40:28.997Z,5.10
2018-01-27T17:42:58.139Z,5.10
2018-01-27T17:45:26.418Z,5.10
2018-01-27T17:47:54.704Z,5.10
2018-01-27T17:50:22.954Z,5.10
2018-01-27T17:52:51.236Z,5.10
2018-01-27T17:55:19.483Z,5.10
2018-01-27T17:57:48.509Z,5.10
2018-01-27T18:00:16.837Z,5.10
2018-01-27T18:02:45.189Z,5.10
2018-01-27T18:05:13.439Z,5.20
2018-01-27T18:07:41.711Z,5.20
2018-01-27T18:10:09.985Z,5.10
2018-01-27T18:12:38.288Z,5.10
2018-01-27T18:15:06.567Z,5.10
2018-01-27T18:17:34.829Z,5.00
2018-01-27T18:20:04.579Z,4.90
2018-01-27T18:22:32.838Z,4.80
2018-01-27T18:25:01.090Z,4.90
2018-01-27T18:27:30.113Z,4.90
2018-01-27T18:29:58.440Z,4.90
2018-01-27T18:32:26.798Z,5.00
2018-01-27T18:34:55.064Z,4.90
2018-01-27T18:37:23.327Z,5.00
2018-01-27T18:39:51.571Z,5.00
2018-01-27T18:42:20.625Z,5.10
2018-01-27T18:44:48.937Z,5.10
2018-01-27T18:47:17.170Z,5.20
2018-01-27T18:49:45.495Z,5.20
2018-01-27T18:52:13.727Z,5.20
2018-01-27T18:54:42.059Z,5.10
2018-01-27T18:57:10.304Z,5.20
2018-01-27T18:59:38.547Z,5.20
2018-01-27T19:02:06.891Z,5.20
2018-01-27T19:04:35.171Z,5.20
2018-01-27T19:07:03.450Z,5.20
2018-01-27T19:09:31.813Z,5.20
2018-01-27T19:12:00.094Z,5.30
2018-01-27T19:14:28.368Z,5.20
2018-01-27T19:16:56.625Z,5.30
2018-01-27T19:19:24.883Z,5.30
2018-01-27T19:21:53.166Z,5.30
2018-01-27T19:24:21.423Z,5.30
2018-01-27T19:26:49.708Z,5.30
2018-01-27T19:29:18.758Z,5.40
2018-01-27T19:31:47.029Z,5.30
2018-01-27T19:34:15.307Z,5.40
2018-01-27T19:36:43.574Z,5.50
2018-01-27T19:39:11.830Z,5.60
2018-01-27T19:41:40.862Z,5.60
2018-01-27T19:44:09.121Z,5.60
2018-01-27T19:46:37.389Z,5.60
2018-01-27T19:49:05.741Z,5.70
2018-01-27T19:51:33.977Z,5.70
2018-01-27T19:54:02.268Z,5.70
2018-01-27T19:56:30.566Z,5.70
2018-01-27T19:58:58.821Z,5.80
2018-01-27T20:01:27.133Z,5.80
2018-01-27T20:03:55.865Z,5.90
2018-01-27T20:06:24.156Z,5.80
2018-01-27T20:08:52.413Z,5.80
2018-01-27T20:11:21.463Z,5.80
2018-01-27T20:13:49.717Z,5.80
2018-01-27T20:16:17.989Z,5.90
2018-01-27T20:18:46.286Z,5.90
2018-01-27T20:21:14.578Z,6.00
2018-01-27T20:23:42.850Z,6.00
2018-01-27T20:26:11.103Z,6.00
2018-01-27T20:28:39.374Z,6.00
2018-01-27T20:31:08.421Z,5.90
2018-01-27T20:33:36.665Z,5.90
2018-01-27T20:36:04.913Z,5.90
2018-01-27T20:38:33.972Z,5.90
2018-01-27T20:41:02.263Z,5.90
2018-01-27T20:43:30.630Z,5.90
2018-01-27T20:45:58.885Z,5.90
2018-01-27T20:48:27.145Z,5.90
2018-01-27T20:50:56.208Z,5.90
2018-01-27T20:53:24.481Z,5.90
2018-01-27T20:55:52.738Z,6.00
2018-01-27T20:58:21.015Z,5.90
2018-01-27T21:00:49.266Z,5.90
2018-01-27T21:03:17.583Z,6.00
2018-01-27T21:05:46.539Z,6.00
2018-01-27T21:08:15.628Z,6.00
2018-01-27T21:10:44.670Z,6.10
2018-01-27T21:13:12.930Z,6.10
2018-01-27T21:15:41.199Z,6.10
2018-01-27T21:18:10.227Z,6.20
2018-01-27T21:20:38.506Z,6.20
2018-01-27T21:23:06.777Z,6.10
2018-01-27T21:25:35.103Z,6.10
2018-01-27T21:28:03.381Z,6.10
2018-01-27T21:30:31.606Z,6.10
2018-01-27T21:32:59.868Z,6.00
2018-01-27T21:35:28.197Z,6.00
2018-01-27T21:37:58.035Z,6.00
2018-01-27T21:40:26.303Z,6.00
2018-01-27T21:42:54.664Z,6.00
2018-01-27T21:45:22.913Z,5.90
2018-01-27T21:47:51.238Z,5.90
2018-01-27T21:50:19.494Z,5.90
2018-01-27T21:52:47.764Z,5.80
2018-01-27T21:55:16.044Z,5.80
2018-01-27T21:57:45.301Z,5.80
2018-01-27T22:00:14.606Z,5.80
2018-01-27T22:02:42.918Z,5.80
2018-01-27T22:05:11.475Z,5.90
2018-01-27T22:07:39.860Z,5.90
2018-01-27T22:10:08.313Z,5.90
2018-01-27T22:12:36.575Z,5.90
2018-01-27T22:15:04.815Z,6.00
2018-01-27T22:17:33.842Z,6.00
2018-01-27T22:20:02.095Z,6.00
2018-01-27T22:22:31.141Z,6.00
2018-01-27T22:24:59.407Z,6.00
2018-01-27T22:27:27.659Z,6.00
2018-01-27T22:29:55.917Z,6.10
2018-01-27T22:32:24.251Z,6.00
2018-01-27T22:34:52.494Z,6.00
2018-01-27T22:37:20.763Z,6.00
2018-01-27T22:39:49.778Z,6.00
2018-01-27T22:42:18.041Z,6.00
2018-01-27T22:44:47.074Z,6.00
2018-01-27T22:47:15.357Z,6.00
2018-01-27T22:49:43.642Z,6.00
2018-01-27T22:52:11.902Z,6.00
2018-01-27T22:54:40.234Z,6.00
2018-01-27T22:57:08.469Z,6.00
2018-01-27T22:59:36.924Z,6.00
2018-01-27T23:02:06.041Z,6.10
2018-01-27T23:04:34.286Z,6.10
2018-01-27T23:07:02.631Z,6.10
2018-01-27T23:09:31.005Z,6.00
2018-01-27T23:11:59.261Z,6.00
2018-01-27T23:14:27.569Z,6.10
2018-01-27T23:16:55.816Z,6.00
2018-01-27T23:19:24.130Z,6.00
2018-01-27T23:21:52.402Z,6.00
2018-01-27T23:24:20.720Z,6.10
2018-01-27T23:26:49.111Z,6.10
2018-01-27T23:29:18.157Z,6.00
2018-01-27T23:31:46.449Z,6.00
2018-01-27T23:34:14.717Z,6.10
2018-01-27T23:36:42.959Z,6.10
2018-01-27T23:39:12.003Z,6.10
2018-01-27T23:41:40.296Z,6.10
2018-01-27T23:44:08.561Z,6.10
2018-01-27T23:46:36.810Z,6.20
2018-01-27T23:49:05.118Z,6.30
2018-01-27T23:51:33.434Z,6.20
2018-01-27T23:54:01.669Z,6.20
2018-01-27T23:56:29.917Z,6.10
2018-01-27T23:58:58.959Z,6.10
